Tahitian Princess — ZCDD8 — position and weather

sailwx.info

Track history (hours):
 
Tides and Currents Weather Stations Pressure Air Temp Water Temp Dewpoint Dewpoint Depression Visibility Wind Speed Wind Dir Waves Ship Positions

Tahitian Princess

Operator: P & O Irish Sea Ltd

Last reported at 2019-Apr-26 04:30 UTC. Time now 2019-Apr-26 04:34 UTC.
Position N 53°27' W 003°01'.

Length 167 m; draft 5.7 m.

Type: Passenger vessel. MMSI: 310362000.

Date/timePositionNaut miles runAvg speedWind from/ knotsBaromVisibWave heightAir tempDewpointWater temp
2019-Apr-26 04:30N 53°27' W 003°01'0 0.3
2019-Apr-26 04:00N 53°27' W 003°01'0 0.7
2019-Apr-26 03:30N 53°27' W 003°01'4 7.6
2019-Apr-26 03:00N 53°30' W 003°06'917.2
2019-Apr-26 02:30N 53°31' W 003°20'918.2
2019-Apr-26 02:00N 53°31' W 003°35'917.3
2019-Apr-26 01:30N 53°32' W 003°50'817.0
2019-Apr-26 01:00N 53°34' W 004°03'6417.2
2019-Apr-25 21:19N 53°24' W 005°49'819.5
2019-Apr-25 20:56N 53°21' W 006°00'614.3
2019-Apr-25 20:30N 53°21' W 006°11'1 2.9
2019-Apr-25 20:00N 53°21' W 006°13'0 0.0
2019-Apr-25 19:30N 53°21' W 006°13'0 0.0
2019-Apr-25 19:00N 53°21' W 006°13'0 0.0
2019-Apr-25 18:30N 53°21' W 006°13'0 0.0
2019-Apr-25 18:00N 53°21' W 006°13'0 0.0
2019-Apr-25 17:30N 53°21' W 006°13'0 0.0
2019-Apr-25 17:00N 53°21' W 006°13'0 0.0
2019-Apr-25 16:30N 53°21' W 006°13'2 4.5
2019-Apr-25 15:59N 53°21' W 006°09'816.5
2019-Apr-25 15:30N 53°22' W 005°56'1417.4
2019-Apr-25 14:42N 53°26' W 005°33'5515.7
2019-Apr-25 11:10N 53°34' W 004°01'316.3
2019-Apr-25 11:00N 53°34' W 003°57'816.7
2019-Apr-25 10:30N 53°33' W 003°43'816.9
2019-Apr-25 10:00N 53°33' W 003°29'917.8
2019-Apr-25 09:30N 53°31' W 003°14'815.8
2019-Apr-25 09:00N 53°27' W 003°02'1 1.7
2019-Apr-25 08:30N 53°27' W 003°01'0 0.9
2019-Apr-25 08:00N 53°27' W 003°01'0 0.0
2019-Apr-25 07:30N 53°27' W 003°01'0 0.0
2019-Apr-25 07:00N 53°27' W 003°01'0 0.0
2019-Apr-25 06:30N 53°27' W 003°01'0 0.0
2019-Apr-25 06:00N 53°27' W 003°01'0 0.0
2019-Apr-25 05:30N 53°27' W 003°01'0 0.0
2019-Apr-25 05:00N 53°27' W 003°01'0 0.0
2019-Apr-25 04:30N 53°27' W 003°01'0 0.8
2019-Apr-25 04:00N 53°27' W 003°01'0 0.4
2019-Apr-25 03:30N 53°27' W 003°01'5 9.5
2019-Apr-25 03:01N 53°30' W 003°06'917.1
2019-Apr-25 02:31N 53°31' W 003°20'917.1
2019-Apr-25 02:01N 53°31' W 003°35'816.5
2019-Apr-25 01:30N 53°32' W 003°49'816.6
2019-Apr-25 01:01N 53°33' W 004°03'816.1
2019-Apr-25 00:30N 53°36' W 004°15'5416.7
2019-Apr-24 21:17N 53°25' W 005°44'517.2
2019-Apr-24 21:00N 53°23' W 005°51'917.5
2019-Apr-24 20:31N 53°20' W 006°05'510.2
2019-Apr-24 20:01N 53°21' W 006°13'0 0.0
2019-Apr-24 19:30N 53°21' W 006°13'0 0.0
2019-Apr-24 19:00N 53°21' W 006°13'0 0.0
2019-Apr-24 18:30N 53°21' W 006°13'0 0.0
2019-Apr-24 17:54N 53°21' W 006°13'0 0.0
2019-Apr-24 17:24N 53°21' W 006°13'0 0.0
2019-Apr-24 16:51N 53°21' W 006°13'0 0.2
2019-Apr-24 16:18N 53°21' W 006°13'1 4.9
2019-Apr-24 16:01N 53°21' W 006°10'815.0
2019-Apr-24 15:31N 53°22' W 005°58'1115.7
2019-Apr-24 14:50N 53°25' W 005°41'6017.0
2019-Apr-24 11:17N 53°34' W 004°01'517.7
2019-Apr-24 11:01N 53°34' W 003°53'917.8
2019-Apr-24 10:30N 53°33' W 003°38'918.0
2019-Apr-24 10:00N 53°33' W 003°23'816.9
2019-Apr-24 09:31N 53°32' W 003°08'611.8
2019-Apr-24 08:58N 53°27' W 003°01'0 0.0
2019-Apr-24 08:28N 53°27' W 003°01'0 1.0
2019-Apr-24 08:00N 53°27' W 003°01'0 0.0
2019-Apr-24 07:27N 53°27' W 003°01'0 0.0
2019-Apr-24 06:57N 53°27' W 003°01'0 0.0
2019-Apr-24 06:30N 53°27' W 003°01'0 0.0
2019-Apr-24 06:00N 53°27' W 003°01'0 0.0
2019-Apr-24 05:30N 53°27' W 003°01'0 0.0
2019-Apr-24 05:00N 53°27' W 003°01'0 0.0
2019-Apr-24 04:30N 53°27' W 003°01'0 0.6
2019-Apr-24 04:01N 53°27' W 003°01'0 0.7
2019-Apr-24 03:31N 53°27' W 003°01'510.5
2019-Apr-24 03:00N 53°31' W 003°07'917.3
2019-Apr-24 02:30N 53°31' W 003°21'917.4
2019-Apr-24 02:00N 53°31' W 003°36'816.9
2019-Apr-24 01:30N 53°32' W 003°50'917.2
2019-Apr-24 01:00N 53°34' W 004°04'917.3
2019-Apr-24 00:29N 53°36' W 004°19'4716.8
2019-Apr-23 21:44N 53°26' W 005°36'417.9
2019-Apr-23 21:30N 53°25' W 005°42'1219.5
2019-Apr-23 20:55N 53°21' W 006°00'614.8
2019-Apr-23 20:31N 53°21' W 006°10'2 3.4
2019-Apr-23 20:00N 53°21' W 006°13'0 0.0
2019-Apr-23 19:30N 53°21' W 006°13'0 0.0
2019-Apr-23 18:33N 53°21' W 006°13'0 0.0
2019-Apr-23 18:30N 53°21' W 006°13'0 0.0
2019-Apr-23 18:00N 53°21' W 006°13'0 0.0
2019-Apr-23 17:30N 53°21' W 006°13'0 0.0
2019-Apr-23 17:00N 53°21' W 006°13'0 0.0
2019-Apr-23 16:31N 53°21' W 006°13'2 4.2
2019-Apr-23 16:01N 53°21' W 006°10'816.2
2019-Apr-23 15:31N 53°22' W 005°56'816.5
2019-Apr-23 15:01N 53°25' W 005°43'2116.0
2019-Apr-23 13:41N 53°30' W 005°09'3217.2
2019-Apr-23 11:50N 53°34' W 004°16'617.1
2019-Apr-23 11:30N 53°34' W 004°06'917.4
2019-Apr-23 11:01N 53°34' W 003°52'917.4
2019-Apr-23 10:31N 53°33' W 003°37'917.5
2019-Apr-23 10:01N 53°33' W 003°22'816.7
2019-Apr-23 09:31N 53°32' W 003°08'713.1
2019-Apr-23 09:01N 53°27' W 003°01'0 0.5
2019-Apr-23 08:31N 53°27' W 003°01'0 0.8
2019-Apr-23 08:01N 53°27' W 003°01'0 0.0
2019-Apr-23 07:31N 53°27' W 003°01'0 0.0
2019-Apr-23 07:01N 53°27' W 003°01'0 0.0
2019-Apr-23 06:31N 53°27' W 003°01'0 0.0
2019-Apr-23 06:01N 53°27' W 003°01'0 0.0
2019-Apr-23 05:31N 53°27' W 003°01'0 0.0
2019-Apr-23 05:01N 53°27' W 003°01'0 0.0
2019-Apr-23 04:30N 53°27' W 003°01'0 0.4
2019-Apr-23 04:00N 53°27' W 003°01'0 0.8
2019-Apr-23 03:31N 53°27' W 003°01'5 9.6
2019-Apr-23 03:00N 53°31' W 003°06'816.8
2019-Apr-23 02:30N 53°31' W 003°20'918.1
2019-Apr-23 02:00N 53°31' W 003°36'1019.4
2019-Apr-23 01:30N 53°32' W 003°52'1021.1
2019-Apr-23 01:00N 53°34' W 004°09'6021.6
2019-Apr-22 22:14N 53°24' W 005°48'720.1
2019-Apr-22 21:52N 53°21' W 006°00'615.5
2019-Apr-22 21:30N 53°21' W 006°09'0 0.0
2019-Apr-22 04:33N 53°21' W 006°09'0 6.5
2019-Apr-22 04:30N 53°21' W 006°08'815.6
2019-Apr-22 04:00N 53°22' W 005°55'918.8
2019-Apr-22 03:30N 53°25' W 005°40'1121.3
2019-Apr-22 03:00N 53°28' W 005°23'1121.9
2019-Apr-22 02:30N 53°30' W 005°05'1122.8
2019-Apr-22 02:00N 53°33' W 004°47'1622.6
2019-Apr-22 01:17N 53°34' W 004°19'621.9
2019-Apr-22 01:01N 53°34' W 004°09'1121.2
2019-Apr-22 00:29N 53°34' W 003°50'1020.5
2019-Apr-22 00:01N 53°33' W 003°34'1020.0
2019-Apr-21 23:31N 53°32' W 003°17'5 9.6
2019-Apr-21 23:01N 53°32' W 003°09'1 2.8
2019-Apr-21 22:30N 53°31' W 003°07'0 0.0
2019-Apr-21 21:58N 53°31' W 003°07'0 0.2
2019-Apr-21 21:30N 53°31' W 003°07'611.5
2019-Apr-21 21:00N 53°27' W 003°01'0 0.7
2019-Apr-21 20:29N 53°27' W 003°01'0 0.6
2019-Apr-21 20:00N 53°27' W 003°01'0 0.4
2019-Apr-21 19:29N 53°27' W 003°01'0 0.0
2019-Apr-21 18:59N 53°27' W 003°01'0 0.0
2019-Apr-21 18:29N 53°27' W 003°01'0 0.0
2019-Apr-21 17:59N 53°27' W 003°01'0 0.0
2019-Apr-21 17:29N 53°27' W 003°01'0 0.0
2019-Apr-21 16:59N 53°27' W 003°01'0 0.0
2019-Apr-21 16:29N 53°27' W 003°01'0 0.0
2019-Apr-21 15:59N 53°27' W 003°01'0 0.0
2019-Apr-21 15:29N 53°27' W 003°01'0 0.0
2019-Apr-21 14:59N 53°27' W 003°01'0 0.0
2019-Apr-21 14:29N 53°27' W 003°01'0 0.0
2019-Apr-21 13:59N 53°27' W 003°01'0 0.0
2019-Apr-21 13:29N 53°27' W 003°01'0 0.0
2019-Apr-21 12:59N 53°27' W 003°01'0 0.0
2019-Apr-21 12:29N 53°27' W 003°01'0 0.0
2019-Apr-21 11:59N 53°27' W 003°01'0 0.0
2019-Apr-21 11:26N 53°27' W 003°01'0 0.0
2019-Apr-21 10:59N 53°27' W 003°01'0 0.0
2019-Apr-21 10:29N 53°27' W 003°01'0 0.0
2019-Apr-21 09:59N 53°27' W 003°01'0 0.0
2019-Apr-21 09:29N 53°27' W 003°01'0 0.0
2019-Apr-21 08:59N 53°27' W 003°01'0 0.0
2019-Apr-21 08:26N 53°27' W 003°01'0 0.0
2019-Apr-21 07:59N 53°27' W 003°01'0 0.0
2019-Apr-21 07:29N 53°27' W 003°01'0 0.0
2019-Apr-21 06:59N 53°27' W 003°01'0 0.0
2019-Apr-21 06:29N 53°27' W 003°01'0 0.0
2019-Apr-21 05:59N 53°27' W 003°01'0 0.0
2019-Apr-21 05:29N 53°27' W 003°01'0 0.0
2019-Apr-21 04:59N 53°27' W 003°01'0 0.8
2019-Apr-21 04:25N 53°27' W 003°01'0 0.4
2019-Apr-21 04:01N 53°27' W 003°01'5 9.5
2019-Apr-21 03:31N 53°30' W 003°06'714.9
2019-Apr-21 03:01N 53°31' W 003°19'815.4
2019-Apr-21 02:30N 53°31' W 003°32'714.6
2019-Apr-21 02:00N 53°32' W 003°44'714.6
2019-Apr-21 01:31N 53°33' W 003°56'714.1
2019-Apr-21 01:01N 53°34' W 004°08'714.4
2019-Apr-21 00:30N 53°35' W 004°20'1115.1
2019-Apr-20 23:45N 53°36' W 004°39'1016.1
2019-Apr-20 23:10N 53°34' W 004°55'2416.0
2019-Apr-20 21:38N 53°27' W 005°34'215.3
2019-Apr-20 21:30N 53°26' W 005°37'815.6
2019-Apr-20 21:00N 53°24' W 005°50'917.5
2019-Apr-20 20:30N 53°20' W 006°03'611.1
2019-Apr-20 20:00N 53°21' W 006°13'0 0.6
2019-Apr-20 19:30N 53°21' W 006°13'0 0.0
2019-Apr-20 19:00N 53°21' W 006°13'0 0.0
2019-Apr-20 18:30N 53°21' W 006°13'0 0.0
2019-Apr-20 18:00N 53°21' W 006°13'0 0.0
2019-Apr-20 17:30N 53°21' W 006°13'0 0.0
2019-Apr-20 17:00N 53°21' W 006°13'0 0.0
2019-Apr-20 16:30N 53°21' W 006°13'2 4.7
2019-Apr-20 16:00N 53°21' W 006°09'816.5
2019-Apr-20 15:30N 53°22' W 005°56'917.3
2019-Apr-20 15:00N 53°25' W 005°42'1716.5
2019-Apr-20 13:57N 53°30' W 005°14'3616.4
2019-Apr-20 11:45N 53°34' W 004°13'414.9
2019-Apr-20 11:31N 53°34' W 004°07'816.5
2019-Apr-20 11:00N 53°34' W 003°53'816.5
2019-Apr-20 10:30N 53°33' W 003°39'816.3
2019-Apr-20 10:00N 53°33' W 003°26'816.5
2019-Apr-20 09:30N 53°31' W 003°12'714.6
2019-Apr-20 09:00N 53°27' W 003°02'1 1.3
2019-Apr-20 08:30N 53°27' W 003°01'0 0.8
2019-Apr-20 08:00N 53°27' W 003°01'0 0.0
2019-Apr-20 07:30N 53°27' W 003°01'0 0.0
2019-Apr-20 07:00N 53°27' W 003°01'0 0.0
2019-Apr-20 06:30N 53°27' W 003°01'0 0.0
2019-Apr-20 06:00N 53°27' W 003°01'0 0.0
2019-Apr-20 05:30N 53°27' W 003°01'0 0.0
2019-Apr-20 05:00N 53°27' W 003°01'0 0.0
2019-Apr-20 04:30N 53°27' W 003°01'0 0.9
2019-Apr-20 04:00N 53°27' W 003°01'0 0.3
2019-Apr-20 03:30N 53°27' W 003°01'611.5
2019-Apr-20 03:01N 53°31' W 003°07'815.8
2019-Apr-20 02:31N 53°31' W 003°21'816.4
2019-Apr-20 02:00N 53°31' W 003°34'816.3
2019-Apr-20 01:30N 53°32' W 003°48'817.0
2019-Apr-20 01:00N 53°33' W 004°02'917.4
2019-Apr-20 00:31N 53°35' W 004°17'1017.9
2019-Apr-19 23:57N 53°36' W 004°33'4218.2
2019-Apr-19 21:37N 53°26' W 005°42'216.7
2019-Apr-19 21:30N 53°25' W 005°45'1018.9
2019-Apr-19 20:59N 53°21' W 006°00'713.8
2019-Apr-19 20:30N 53°21' W 006°11'1 2.1
2019-Apr-19 20:00N 53°21' W 006°13'0 0.0
2019-Apr-19 19:30N 53°21' W 006°13'0 0.0
2019-Apr-19 19:00N 53°21' W 006°13'0 0.0
2019-Apr-19 18:30N 53°21' W 006°13'0 0.0
2019-Apr-19 17:59N 53°21' W 006°13'0 0.0
2019-Apr-19 17:30N 53°21' W 006°13'0 0.0
2019-Apr-19 17:00N 53°21' W 006°13'0 0.0
2019-Apr-19 16:30N 53°21' W 006°13'2 4.4
2019-Apr-19 16:00N 53°21' W 006°09'816.0
2019-Apr-19 15:30N 53°22' W 005°56'816.7
2019-Apr-19 15:00N 53°25' W 005°43'1216.8
2019-Apr-19 14:17N 53°28' W 005°23'516.2
2019-Apr-19 13:58N 53°29' W 005°15'1217.3
2019-Apr-19 13:18N 53°32' W 004°56'718.2
2019-Apr-19 12:54N 53°34' W 004°44'717.1
2019-Apr-19 12:30N 53°34' W 004°33'917.5
2019-Apr-19 12:00N 53°34' W 004°18'917.4
2019-Apr-19 11:30N 53°34' W 004°04'816.6
2019-Apr-19 11:00N 53°34' W 003°50'816.9
2019-Apr-19 10:31N 53°33' W 003°36'816.7
2019-Apr-19 10:01N 53°32' W 003°22'817.0
2019-Apr-19 09:31N 53°31' W 003°08'611.7
2019-Apr-19 09:00N 53°27' W 003°01'0 0.8
2019-Apr-19 08:30N 53°27' W 003°01'0 0.1
2019-Apr-19 07:58N 53°27' W 003°01'0 0.0
2019-Apr-19 07:28N 53°27' W 003°01'0 0.0
2019-Apr-19 07:00N 53°27' W 003°01'0 0.0
2019-Apr-19 06:30N 53°27' W 003°01'0 0.0
2019-Apr-19 06:00N 53°27' W 003°01'0 0.0
2019-Apr-19 05:30N 53°27' W 003°01'0 0.0
2019-Apr-19 05:00N 53°27' W 003°01'0 0.0
2019-Apr-19 04:30N 53°27' W 003°01'0 0.9
2019-Apr-19 04:00N 53°27' W 003°01'0 0.3
2019-Apr-19 03:30N 53°27' W 003°01'4 7.4
2019-Apr-19 03:00N 53°29' W 003°05'612.0
2019-Apr-19 02:31N 53°31' W 003°15'816.4
2019-Apr-19 02:00N 53°31' W 003°29'917.5
2019-Apr-19 01:31N 53°32' W 003°44'918.9
2019-Apr-19 01:00N 53°33' W 003°59'1018.5
2019-Apr-19 00:29N 53°35' W 004°15'5618.4
2019-Apr-18 21:26N 53°24' W 005°48'819.7
2019-Apr-18 21:00N 53°21' W 006°01'713.3
2019-Apr-18 20:30N 53°21' W 006°12'1 1.1
2019-Apr-18 20:00N 53°21' W 006°13'0 0.0
2019-Apr-18 19:30N 53°21' W 006°13'0 0.0
2019-Apr-18 19:00N 53°21' W 006°13'0 0.0
2019-Apr-18 18:30N 53°21' W 006°13'0 0.0
2019-Apr-18 18:00N 53°21' W 006°13'0 0.0
2019-Apr-18 17:30N 53°21' W 006°13'0 0.0
2019-Apr-18 17:01N 53°21' W 006°13'0 0.0
2019-Apr-18 16:30N 53°21' W 006°13'2 4.8
2019-Apr-18 16:01N 53°21' W 006°09'714.2
2019-Apr-18 15:30N 53°22' W 005°57'815.2
2019-Apr-18 15:00N 53°24' W 005°45'814.6
2019-Apr-18 14:28N 53°26' W 005°32'5216.3
2019-Apr-18 11:17N 53°34' W 004°06'516.6
2019-Apr-18 11:01N 53°34' W 003°59'816.1
2019-Apr-18 10:30N 53°33' W 003°45'815.6
2019-Apr-18 10:00N 53°33' W 003°32'816.9
2019-Apr-18 09:31N 53°32' W 003°18'816.5
2019-Apr-18 09:00N 53°29' W 003°05'3 6.1
2019-Apr-18 08:30N 53°27' W 003°01'0 0.9
2019-Apr-18 08:00N 53°27' W 003°01'0 0.0
2019-Apr-18 07:30N 53°27' W 003°01'0 0.0
2019-Apr-18 07:00N 53°27' W 003°01'0 0.0
2019-Apr-18 06:30N 53°27' W 003°01'0 0.0
2019-Apr-18 06:00N 53°27' W 003°01'0 0.0
2019-Apr-18 05:30N 53°27' W 003°01'0 0.0
2019-Apr-18 05:00N 53°27' W 003°01'0 0.3
2019-Apr-18 04:30N 53°27' W 003°01'0 0.7
2019-Apr-18 04:00N 53°27' W 003°01'0 0.3
2019-Apr-18 03:30N 53°27' W 003°01'611.8
2019-Apr-18 03:00N 53°31' W 003°08'815.2
2019-Apr-18 02:31N 53°31' W 003°20'917.8
2019-Apr-18 02:01N 53°31' W 003°35'919.0
2019-Apr-18 01:31N 53°32' W 003°51'1018.8
2019-Apr-18 01:00N 53°34' W 004°07'5318.1
2019-Apr-17 22:05N 53°27' W 005°35'818.7
2019-Apr-17 21:38N 53°24' W 005°48'318.1
2019-Apr-17 21:27N 53°23' W 005°53'818.1
2019-Apr-17 21:01N 53°20' W 006°06'4 8.6
2019-Apr-17 20:30N 53°21' W 006°13'0 0.0
2019-Apr-17 19:56N 53°21' W 006°13'0 0.0
2019-Apr-17 19:26N 53°21' W 006°13'0 0.0
2019-Apr-17 19:00N 53°21' W 006°13'0 0.0
2019-Apr-17 18:30N 53°21' W 006°13'0 0.0
2019-Apr-17 18:00N 53°21' W 006°13'0 0.0
2019-Apr-17 17:30N 53°21' W 006°13'0 0.0
2019-Apr-17 17:00N 53°21' W 006°13'0 0.2
2019-Apr-17 16:30N 53°21' W 006°13'3 6.3
2019-Apr-17 16:00N 53°21' W 006°08'714.8
2019-Apr-17 15:30N 53°23' W 005°56'1018.2
2019-Apr-17 14:56N 53°25' W 005°39'5319.3
2019-Apr-17 12:12N 53°35' W 004°12'419.8
2019-Apr-17 12:00N 53°34' W 004°05'1019.8
2019-Apr-17 11:31N 53°34' W 003°49'1020.8
2019-Apr-17 11:00N 53°33' W 003°31'1121.4
2019-Apr-17 10:30N 53°31' W 003°14'817.0
2019-Apr-17 10:00N 53°27' W 003°01'1 1.1
2019-Apr-17 09:31N 53°27' W 003°01'0 0.4
2019-Apr-17 09:00N 53°27' W 003°01'0 0.0
2019-Apr-17 08:29N 53°27' W 003°01'0 0.0
2019-Apr-17 07:59N 53°27' W 003°01'0 0.0
2019-Apr-17 07:29N 53°27' W 003°01'0 0.0
2019-Apr-17 06:59N 53°27' W 003°01'0 0.0
2019-Apr-17 06:29N 53°27' W 003°01'0 0.0
2019-Apr-17 05:59N 53°27' W 003°01'0 0.0
2019-Apr-17 05:29N 53°27' W 003°01'0 0.0
2019-Apr-17 04:59N 53°27' W 003°01'0 0.1
2019-Apr-17 04:29N 53°27' W 003°01'0 0.8
2019-Apr-17 03:59N 53°27' W 003°01'0 0.3
2019-Apr-17 03:30N 53°27' W 003°01'611.8
2019-Apr-17 03:00N 53°31' W 003°08'715.0
2019-Apr-17 02:30N 53°31' W 003°20'816.7
2019-Apr-17 02:00N 53°31' W 003°34'815.9
2019-Apr-17 01:30N 53°32' W 003°48'816.0
2019-Apr-17 01:00N 53°34' W 004°01'815.5
2019-Apr-17 00:28N 53°35' W 004°15'5717.1
2019-Apr-16 21:09N 53°24' W 005°48'519.2
2019-Apr-16 20:54N 53°22' W 005°56'717.3
2019-Apr-16 20:30N 53°20' W 006°07'4 7.3
2019-Apr-16 20:00N 53°21' W 006°13'0 0.0
2019-Apr-16 19:31N 53°21' W 006°13'0 0.0
2019-Apr-16 19:01N 53°21' W 006°13'0 0.0
2019-Apr-16 18:31N 53°21' W 006°13'0 0.0
2019-Apr-16 18:00N 53°21' W 006°13'0 0.0
2019-Apr-16 17:30N 53°21' W 006°13'0 0.0
2019-Apr-16 17:00N 53°21' W 006°13'0 0.0
2019-Apr-16 16:30N 53°21' W 006°13'1 1.9
2019-Apr-16 16:00N 53°21' W 006°12'713.6
2019-Apr-16 15:30N 53°22' W 006°00'816.5
2019-Apr-16 15:00N 53°24' W 005°47'5917.6
2019-Apr-16 11:40N 53°34' W 004°10'317.9
2019-Apr-16 11:30N 53°34' W 004°05'1117.4
2019-Apr-16 10:50N 53°34' W 003°45'617.0
2019-Apr-16 10:30N 53°33' W 003°36'917.8
2019-Apr-16 10:00N 53°32' W 003°21'918.3
2019-Apr-16 09:30N 53°30' W 003°06'4 8.9
2019-Apr-16 09:00N 53°27' W 003°01'0 0.5
2019-Apr-16 08:30N 53°27' W 003°01'0 0.4
2019-Apr-16 07:59N 53°27' W 003°01'0 0.0
2019-Apr-16 07:29N 53°27' W 003°01'0 0.0
2019-Apr-16 06:59N 53°27' W 003°01'0 0.0
2019-Apr-16 06:29N 53°27' W 003°01'0 0.0
2019-Apr-16 05:59N 53°27' W 003°01'0 0.0
2019-Apr-16 05:29N 53°27' W 003°01'0 0.0
2019-Apr-16 04:59N 53°27' W 003°01'  
Track history (hours):
 
Tides and Currents Weather Stations Pressure Air Temp Water Temp Dewpoint Dewpoint Depression Visibility Wind Speed Wind Dir Waves Ship Positions

Tahitian Princess

Operator: P & O Irish Sea Ltd

Last reported at 2019-Apr-26 04:30 UTC. Time now 2019-Apr-26 04:34 UTC.
Position N 53°27' W 003°01'.

Length 167 m; draft 5.7 m.

Type: Passenger vessel. MMSI: 310362000.

Date/timePositionNaut miles runAvg speedWind from/ knotsBaromVisibWave heightAir tempDewpointWater temp
2019-Apr-26 04:30N 53°27' W 003°01'0 0.3
2019-Apr-26 04:00N 53°27' W 003°01'0 0.7
2019-Apr-26 03:30N 53°27' W 003°01'4 7.6
2019-Apr-26 03:00N 53°30' W 003°06'917.2
2019-Apr-26 02:30N 53°31' W 003°20'918.2
2019-Apr-26 02:00N 53°31' W 003°35'917.3
2019-Apr-26 01:30N 53°32' W 003°50'817.0
2019-Apr-26 01:00N 53°34' W 004°03'6417.2
2019-Apr-25 21:19N 53°24' W 005°49'819.5
2019-Apr-25 20:56N 53°21' W 006°00'614.3
2019-Apr-25 20:30N 53°21' W 006°11'1 2.9
2019-Apr-25 20:00N 53°21' W 006°13'0 0.0
2019-Apr-25 19:30N 53°21' W 006°13'0 0.0
2019-Apr-25 19:00N 53°21' W 006°13'0 0.0
2019-Apr-25 18:30N 53°21' W 006°13'0 0.0
2019-Apr-25 18:00N 53°21' W 006°13'0 0.0
2019-Apr-25 17:30N 53°21' W 006°13'0 0.0
2019-Apr-25 17:00N 53°21' W 006°13'0 0.0
2019-Apr-25 16:30N 53°21' W 006°13'2 4.5
2019-Apr-25 15:59N 53°21' W 006°09'816.5
2019-Apr-25 15:30N 53°22' W 005°56'1417.4
2019-Apr-25 14:42N 53°26' W 005°33'5515.7
2019-Apr-25 11:10N 53°34' W 004°01'316.3
2019-Apr-25 11:00N 53°34' W 003°57'816.7
2019-Apr-25 10:30N 53°33' W 003°43'816.9
2019-Apr-25 10:00N 53°33' W 003°29'917.8
2019-Apr-25 09:30N 53°31' W 003°14'815.8
2019-Apr-25 09:00N 53°27' W 003°02'1 1.7
2019-Apr-25 08:30N 53°27' W 003°01'0 0.9
2019-Apr-25 08:00N 53°27' W 003°01'0 0.0
2019-Apr-25 07:30N 53°27' W 003°01'0 0.0
2019-Apr-25 07:00N 53°27' W 003°01'0 0.0
2019-Apr-25 06:30N 53°27' W 003°01'0 0.0
2019-Apr-25 06:00N 53°27' W 003°01'0 0.0
2019-Apr-25 05:30N 53°27' W 003°01'0 0.0
2019-Apr-25 05:00N 53°27' W 003°01'0 0.0
2019-Apr-25 04:30N 53°27' W 003°01'0 0.8
2019-Apr-25 04:00N 53°27' W 003°01'0 0.4
2019-Apr-25 03:30N 53°27' W 003°01'5 9.5
2019-Apr-25 03:01N 53°30' W 003°06'917.1
2019-Apr-25 02:31N 53°31' W 003°20'917.1
2019-Apr-25 02:01N 53°31' W 003°35'816.5
2019-Apr-25 01:30N 53°32' W 003°49'816.6
2019-Apr-25 01:01N 53°33' W 004°03'816.1
2019-Apr-25 00:30N 53°36' W 004°15'5416.7
2019-Apr-24 21:17N 53°25' W 005°44'517.2
2019-Apr-24 21:00N 53°23' W 005°51'917.5
2019-Apr-24 20:31N 53°20' W 006°05'510.2
2019-Apr-24 20:01N 53°21' W 006°13'0 0.0
2019-Apr-24 19:30N 53°21' W 006°13'0 0.0
2019-Apr-24 19:00N 53°21' W 006°13'0 0.0
2019-Apr-24 18:30N 53°21' W 006°13'0 0.0
2019-Apr-24 17:54N 53°21' W 006°13'0 0.0
2019-Apr-24 17:24N 53°21' W 006°13'0 0.0
2019-Apr-24 16:51N 53°21' W 006°13'0 0.2
2019-Apr-24 16:18N 53°21' W 006°13'1 4.9
2019-Apr-24 16:01N 53°21' W 006°10'815.0
2019-Apr-24 15:31N 53°22' W 005°58'1115.7
2019-Apr-24 14:50N 53°25' W 005°41'6017.0
2019-Apr-24 11:17N 53°34' W 004°01'517.7
2019-Apr-24 11:01N 53°34' W 003°53'917.8
2019-Apr-24 10:30N 53°33' W 003°38'918.0
2019-Apr-24 10:00N 53°33' W 003°23'816.9
2019-Apr-24 09:31N 53°32' W 003°08'611.8
2019-Apr-24 08:58N 53°27' W 003°01'0 0.0
2019-Apr-24 08:28N 53°27' W 003°01'0 1.0
2019-Apr-24 08:00N 53°27' W 003°01'0 0.0
2019-Apr-24 07:27N 53°27' W 003°01'0 0.0
2019-Apr-24 06:57N 53°27' W 003°01'0 0.0
2019-Apr-24 06:30N 53°27' W 003°01'0 0.0
2019-Apr-24 06:00N 53°27' W 003°01'0 0.0
2019-Apr-24 05:30N 53°27' W 003°01'0 0.0
2019-Apr-24 05:00N 53°27' W 003°01'0 0.0
2019-Apr-24 04:30N 53°27' W 003°01'0 0.6
2019-Apr-24 04:01N 53°27' W 003°01'0 0.7
2019-Apr-24 03:31N 53°27' W 003°01'510.5
2019-Apr-24 03:00N 53°31' W 003°07'917.3
2019-Apr-24 02:30N 53°31' W 003°21'917.4
2019-Apr-24 02:00N 53°31' W 003°36'816.9
2019-Apr-24 01:30N 53°32' W 003°50'917.2
2019-Apr-24 01:00N 53°34' W 004°04'917.3
2019-Apr-24 00:29N 53°36' W 004°19'4716.8
2019-Apr-23 21:44N 53°26' W 005°36'417.9
2019-Apr-23 21:30N 53°25' W 005°42'1219.5
2019-Apr-23 20:55N 53°21' W 006°00'614.8
2019-Apr-23 20:31N 53°21' W 006°10'2 3.4
2019-Apr-23 20:00N 53°21' W 006°13'0 0.0
2019-Apr-23 19:30N 53°21' W 006°13'0 0.0
2019-Apr-23 18:33N 53°21' W 006°13'0 0.0
2019-Apr-23 18:30N 53°21' W 006°13'0 0.0
2019-Apr-23 18:00N 53°21' W 006°13'0 0.0
2019-Apr-23 17:30N 53°21' W 006°13'0 0.0
2019-Apr-23 17:00N 53°21' W 006°13'0 0.0
2019-Apr-23 16:31N 53°21' W 006°13'2 4.2
2019-Apr-23 16:01N 53°21' W 006°10'816.2
2019-Apr-23 15:31N 53°22' W 005°56'816.5
2019-Apr-23 15:01N 53°25' W 005°43'2116.0
2019-Apr-23 13:41N 53°30' W 005°09'3217.2
2019-Apr-23 11:50N 53°34' W 004°16'617.1
2019-Apr-23 11:30N 53°34' W 004°06'917.4
2019-Apr-23 11:01N 53°34' W 003°52'917.4
2019-Apr-23 10:31N 53°33' W 003°37'917.5
2019-Apr-23 10:01N 53°33' W 003°22'816.7
2019-Apr-23 09:31N 53°32' W 003°08'713.1
2019-Apr-23 09:01N 53°27' W 003°01'0 0.5
2019-Apr-23 08:31N 53°27' W 003°01'0 0.8
2019-Apr-23 08:01N 53°27' W 003°01'0 0.0
2019-Apr-23 07:31N 53°27' W 003°01'0 0.0
2019-Apr-23 07:01N 53°27' W 003°01'0 0.0
2019-Apr-23 06:31N 53°27' W 003°01'0 0.0
2019-Apr-23 06:01N 53°27' W 003°01'0 0.0
2019-Apr-23 05:31N 53°27' W 003°01'0 0.0
2019-Apr-23 05:01N 53°27' W 003°01'0 0.0
2019-Apr-23 04:30N 53°27' W 003°01'0 0.4
2019-Apr-23 04:00N 53°27' W 003°01'0 0.8
2019-Apr-23 03:31N 53°27' W 003°01'5 9.6
2019-Apr-23 03:00N 53°31' W 003°06'816.8
2019-Apr-23 02:30N 53°31' W 003°20'918.1
2019-Apr-23 02:00N 53°31' W 003°36'1019.4
2019-Apr-23 01:30N 53°32' W 003°52'1021.1
2019-Apr-23 01:00N 53°34' W 004°09'6021.6
2019-Apr-22 22:14N 53°24' W 005°48'720.1
2019-Apr-22 21:52N 53°21' W 006°00'615.5
2019-Apr-22 21:30N 53°21' W 006°09'0 0.0
2019-Apr-22 04:33N 53°21' W 006°09'0 6.5
2019-Apr-22 04:30N 53°21' W 006°08'815.6
2019-Apr-22 04:00N 53°22' W 005°55'918.8
2019-Apr-22 03:30N 53°25' W 005°40'1121.3
2019-Apr-22 03:00N 53°28' W 005°23'1121.9
2019-Apr-22 02:30N 53°30' W 005°05'1122.8
2019-Apr-22 02:00N 53°33' W 004°47'1622.6
2019-Apr-22 01:17N 53°34' W 004°19'621.9
2019-Apr-22 01:01N 53°34' W 004°09'1121.2
2019-Apr-22 00:29N 53°34' W 003°50'1020.5
2019-Apr-22 00:01N 53°33' W 003°34'1020.0
2019-Apr-21 23:31N 53°32' W 003°17'5 9.6
2019-Apr-21 23:01N 53°32' W 003°09'1 2.8
2019-Apr-21 22:30N 53°31' W 003°07'0 0.0
2019-Apr-21 21:58N 53°31' W 003°07'0 0.2
2019-Apr-21 21:30N 53°31' W 003°07'611.5
2019-Apr-21 21:00N 53°27' W 003°01'0 0.7
2019-Apr-21 20:29N 53°27' W 003°01'0 0.6
2019-Apr-21 20:00N 53°27' W 003°01'0 0.4
2019-Apr-21 19:29N 53°27' W 003°01'0 0.0
2019-Apr-21 18:59N 53°27' W 003°01'0 0.0
2019-Apr-21 18:29N 53°27' W 003°01'0 0.0
2019-Apr-21 17:59N 53°27' W 003°01'0 0.0
2019-Apr-21 17:29N 53°27' W 003°01'0 0.0
2019-Apr-21 16:59N 53°27' W 003°01'0 0.0
2019-Apr-21 16:29N 53°27' W 003°01'0 0.0
2019-Apr-21 15:59N 53°27' W 003°01'0 0.0
2019-Apr-21 15:29N 53°27' W 003°01'0 0.0
2019-Apr-21 14:59N 53°27' W 003°01'0 0.0
2019-Apr-21 14:29N 53°27' W 003°01'0 0.0
2019-Apr-21 13:59N 53°27' W 003°01'0 0.0
2019-Apr-21 13:29N 53°27' W 003°01'0 0.0
2019-Apr-21 12:59N 53°27' W 003°01'0 0.0
2019-Apr-21 12:29N 53°27' W 003°01'0 0.0
2019-Apr-21 11:59N 53°27' W 003°01'0 0.0
2019-Apr-21 11:26N 53°27' W 003°01'0 0.0
2019-Apr-21 10:59N 53°27' W 003°01'0 0.0
2019-Apr-21 10:29N 53°27' W 003°01'0 0.0
2019-Apr-21 09:59N 53°27' W 003°01'0 0.0
2019-Apr-21 09:29N 53°27' W 003°01'0 0.0
2019-Apr-21 08:59N 53°27' W 003°01'0 0.0
2019-Apr-21 08:26N 53°27' W 003°01'0 0.0
2019-Apr-21 07:59N 53°27' W 003°01'0 0.0
2019-Apr-21 07:29N 53°27' W 003°01'0 0.0
2019-Apr-21 06:59N 53°27' W 003°01'0 0.0
2019-Apr-21 06:29N 53°27' W 003°01'0 0.0
2019-Apr-21 05:59N 53°27' W 003°01'0 0.0
2019-Apr-21 05:29N 53°27' W 003°01'0 0.0
2019-Apr-21 04:59N 53°27' W 003°01'0 0.8
2019-Apr-21 04:25N 53°27' W 003°01'0 0.4
2019-Apr-21 04:01N 53°27' W 003°01'5 9.5
2019-Apr-21 03:31N 53°30' W 003°06'714.9
2019-Apr-21 03:01N 53°31' W 003°19'815.4
2019-Apr-21 02:30N 53°31' W 003°32'714.6
2019-Apr-21 02:00N 53°32' W 003°44'714.6
2019-Apr-21 01:31N 53°33' W 003°56'714.1
2019-Apr-21 01:01N 53°34' W 004°08'714.4
2019-Apr-21 00:30N 53°35' W 004°20'1115.1
2019-Apr-20 23:45N 53°36' W 004°39'1016.1
2019-Apr-20 23:10N 53°34' W 004°55'2416.0
2019-Apr-20 21:38N 53°27' W 005°34'215.3
2019-Apr-20 21:30N 53°26' W 005°37'815.6
2019-Apr-20 21:00N 53°24' W 005°50'917.5
2019-Apr-20 20:30N 53°20' W 006°03'611.1
2019-Apr-20 20:00N 53°21' W 006°13'0 0.6
2019-Apr-20 19:30N 53°21' W 006°13'0 0.0
2019-Apr-20 19:00N 53°21' W 006°13'0 0.0
2019-Apr-20 18:30N 53°21' W 006°13'0 0.0
2019-Apr-20 18:00N 53°21' W 006°13'0 0.0
2019-Apr-20 17:30N 53°21' W 006°13'0 0.0
2019-Apr-20 17:00N 53°21' W 006°13'0 0.0
2019-Apr-20 16:30N 53°21' W 006°13'2 4.7
2019-Apr-20 16:00N 53°21' W 006°09'816.5
2019-Apr-20 15:30N 53°22' W 005°56'917.3
2019-Apr-20 15:00N 53°25' W 005°42'1716.5
2019-Apr-20 13:57N 53°30' W 005°14'3616.4
2019-Apr-20 11:45N 53°34' W 004°13'414.9
2019-Apr-20 11:31N 53°34' W 004°07'816.5
2019-Apr-20 11:00N 53°34' W 003°53'816.5
2019-Apr-20 10:30N 53°33' W 003°39'816.3
2019-Apr-20 10:00N 53°33' W 003°26'816.5
2019-Apr-20 09:30N 53°31' W 003°12'714.6
2019-Apr-20 09:00N 53°27' W 003°02'1 1.3
2019-Apr-20 08:30N 53°27' W 003°01'0 0.8
2019-Apr-20 08:00N 53°27' W 003°01'0 0.0
2019-Apr-20 07:30N 53°27' W 003°01'0 0.0
2019-Apr-20 07:00N 53°27' W 003°01'0 0.0
2019-Apr-20 06:30N 53°27' W 003°01'0 0.0
2019-Apr-20 06:00N 53°27' W 003°01'0 0.0
2019-Apr-20 05:30N 53°27' W 003°01'0 0.0
2019-Apr-20 05:00N 53°27' W 003°01'0 0.0
2019-Apr-20 04:30N 53°27' W 003°01'0 0.9
2019-Apr-20 04:00N 53°27' W 003°01'0 0.3
2019-Apr-20 03:30N 53°27' W 003°01'611.5
2019-Apr-20 03:01N 53°31' W 003°07'815.8
2019-Apr-20 02:31N 53°31' W 003°21'816.4
2019-Apr-20 02:00N 53°31' W 003°34'816.3
2019-Apr-20 01:30N 53°32' W 003°48'817.0
2019-Apr-20 01:00N 53°33' W 004°02'917.4
2019-Apr-20 00:31N 53°35' W 004°17'1017.9
2019-Apr-19 23:57N 53°36' W 004°33'4218.2
2019-Apr-19 21:37N 53°26' W 005°42'216.7
2019-Apr-19 21:30N 53°25' W 005°45'1018.9
2019-Apr-19 20:59N 53°21' W 006°00'713.8
2019-Apr-19 20:30N 53°21' W 006°11'1 2.1
2019-Apr-19 20:00N 53°21' W 006°13'0 0.0
2019-Apr-19 19:30N 53°21' W 006°13'0 0.0
2019-Apr-19 19:00N 53°21' W 006°13'0 0.0
2019-Apr-19 18:30N 53°21' W 006°13'0 0.0
2019-Apr-19 17:59N 53°21' W 006°13'0 0.0
2019-Apr-19 17:30N 53°21' W 006°13'0 0.0
2019-Apr-19 17:00N 53°21' W 006°13'0 0.0
2019-Apr-19 16:30N 53°21' W 006°13'2 4.4
2019-Apr-19 16:00N 53°21' W 006°09'816.0
2019-Apr-19 15:30N 53°22' W 005°56'816.7
2019-Apr-19 15:00N 53°25' W 005°43'1216.8
2019-Apr-19 14:17N 53°28' W 005°23'516.2
2019-Apr-19 13:58N 53°29' W 005°15'1217.3
2019-Apr-19 13:18N 53°32' W 004°56'718.2
2019-Apr-19 12:54N 53°34' W 004°44'717.1
2019-Apr-19 12:30N 53°34' W 004°33'917.5
2019-Apr-19 12:00N 53°34' W 004°18'917.4
2019-Apr-19 11:30N 53°34' W 004°04'816.6
2019-Apr-19 11:00N 53°34' W 003°50'816.9
2019-Apr-19 10:31N 53°33' W 003°36'816.7
2019-Apr-19 10:01N 53°32' W 003°22'817.0
2019-Apr-19 09:31N 53°31' W 003°08'611.7
2019-Apr-19 09:00N 53°27' W 003°01'0 0.8
2019-Apr-19 08:30N 53°27' W 003°01'0 0.1
2019-Apr-19 07:58N 53°27' W 003°01'0 0.0
2019-Apr-19 07:28N 53°27' W 003°01'0 0.0
2019-Apr-19 07:00N 53°27' W 003°01'0 0.0
2019-Apr-19 06:30N 53°27' W 003°01'0 0.0
2019-Apr-19 06:00N 53°27' W 003°01'0 0.0
2019-Apr-19 05:30N 53°27' W 003°01'0 0.0
2019-Apr-19 05:00N 53°27' W 003°01'0 0.0
2019-Apr-19 04:30N 53°27' W 003°01'0 0.9
2019-Apr-19 04:00N 53°27' W 003°01'0 0.3
2019-Apr-19 03:30N 53°27' W 003°01'4 7.4
2019-Apr-19 03:00N 53°29' W 003°05'612.0
2019-Apr-19 02:31N 53°31' W 003°15'816.4
2019-Apr-19 02:00N 53°31' W 003°29'917.5
2019-Apr-19 01:31N 53°32' W 003°44'918.9
2019-Apr-19 01:00N 53°33' W 003°59'1018.5
2019-Apr-19 00:29N 53°35' W 004°15'5618.4
2019-Apr-18 21:26N 53°24' W 005°48'819.7
2019-Apr-18 21:00N 53°21' W 006°01'713.3
2019-Apr-18 20:30N 53°21' W 006°12'1 1.1
2019-Apr-18 20:00N 53°21' W 006°13'0 0.0
2019-Apr-18 19:30N 53°21' W 006°13'0 0.0
2019-Apr-18 19:00N 53°21' W 006°13'0 0.0
2019-Apr-18 18:30N 53°21' W 006°13'0 0.0
2019-Apr-18 18:00N 53°21' W 006°13'0 0.0
2019-Apr-18 17:30N 53°21' W 006°13'0 0.0
2019-Apr-18 17:01N 53°21' W 006°13'0 0.0
2019-Apr-18 16:30N 53°21' W 006°13'2 4.8
2019-Apr-18 16:01N 53°21' W 006°09'714.2
2019-Apr-18 15:30N 53°22' W 005°57'815.2
2019-Apr-18 15:00N 53°24' W 005°45'814.6
2019-Apr-18 14:28N 53°26' W 005°32'5216.3
2019-Apr-18 11:17N 53°34' W 004°06'516.6
2019-Apr-18 11:01N 53°34' W 003°59'816.1
2019-Apr-18 10:30N 53°33' W 003°45'815.6
2019-Apr-18 10:00N 53°33' W 003°32'816.9
2019-Apr-18 09:31N 53°32' W 003°18'816.5
2019-Apr-18 09:00N 53°29' W 003°05'3 6.1
2019-Apr-18 08:30N 53°27' W 003°01'0 0.9
2019-Apr-18 08:00N 53°27' W 003°01'0 0.0
2019-Apr-18 07:30N 53°27' W 003°01'0 0.0
2019-Apr-18 07:00N 53°27' W 003°01'0 0.0
2019-Apr-18 06:30N 53°27' W 003°01'0 0.0
2019-Apr-18 06:00N 53°27' W 003°01'0 0.0
2019-Apr-18 05:30N 53°27' W 003°01'0 0.0
2019-Apr-18 05:00N 53°27' W 003°01'0 0.3
2019-Apr-18 04:30N 53°27' W 003°01'0 0.7
2019-Apr-18 04:00N 53°27' W 003°01'0 0.3
2019-Apr-18 03:30N 53°27' W 003°01'611.8
2019-Apr-18 03:00N 53°31' W 003°08'815.2
2019-Apr-18 02:31N 53°31' W 003°20'917.8
2019-Apr-18 02:01N 53°31' W 003°35'919.0
2019-Apr-18 01:31N 53°32' W 003°51'1018.8
2019-Apr-18 01:00N 53°34' W 004°07'5318.1
2019-Apr-17 22:05N 53°27' W 005°35'818.7
2019-Apr-17 21:38N 53°24' W 005°48'318.1
2019-Apr-17 21:27N 53°23' W 005°53'818.1
2019-Apr-17 21:01N 53°20' W 006°06'4 8.6
2019-Apr-17 20:30N 53°21' W 006°13'0 0.0
2019-Apr-17 19:56N 53°21' W 006°13'0 0.0
2019-Apr-17 19:26N 53°21' W 006°13'0 0.0
2019-Apr-17 19:00N 53°21' W 006°13'0 0.0
2019-Apr-17 18:30N 53°21' W 006°13'0 0.0
2019-Apr-17 18:00N 53°21' W 006°13'0 0.0
2019-Apr-17 17:30N 53°21' W 006°13'0 0.0
2019-Apr-17 17:00N 53°21' W 006°13'0 0.2
2019-Apr-17 16:30N 53°21' W 006°13'3 6.3
2019-Apr-17 16:00N 53°21' W 006°08'714.8
2019-Apr-17 15:30N 53°23' W 005°56'1018.2
2019-Apr-17 14:56N 53°25' W 005°39'5319.3
2019-Apr-17 12:12N 53°35' W 004°12'419.8
2019-Apr-17 12:00N 53°34' W 004°05'1019.8
2019-Apr-17 11:31N 53°34' W 003°49'1020.8
2019-Apr-17 11:00N 53°33' W 003°31'1121.4
2019-Apr-17 10:30N 53°31' W 003°14'817.0
2019-Apr-17 10:00N 53°27' W 003°01'1 1.1
2019-Apr-17 09:31N 53°27' W 003°01'0 0.4
2019-Apr-17 09:00N 53°27' W 003°01'0 0.0
2019-Apr-17 08:29N 53°27' W 003°01'0 0.0
2019-Apr-17 07:59N 53°27' W 003°01'0 0.0
2019-Apr-17 07:29N 53°27' W 003°01'0 0.0
2019-Apr-17 06:59N 53°27' W 003°01'0 0.0
2019-Apr-17 06:29N 53°27' W 003°01'0 0.0
2019-Apr-17 05:59N 53°27' W 003°01'0 0.0
2019-Apr-17 05:29N 53°27' W 003°01'0 0.0
2019-Apr-17 04:59N 53°27' W 003°01'0 0.1
2019-Apr-17 04:29N 53°27' W 003°01'0 0.8
2019-Apr-17 03:59N 53°27' W 003°01'0 0.3
2019-Apr-17 03:30N 53°27' W 003°01'611.8
2019-Apr-17 03:00N 53°31' W 003°08'715.0
2019-Apr-17 02:30N 53°31' W 003°20'816.7
2019-Apr-17 02:00N 53°31' W 003°34'815.9
2019-Apr-17 01:30N 53°32' W 003°48'816.0
2019-Apr-17 01:00N 53°34' W 004°01'815.5
2019-Apr-17 00:28N 53°35' W 004°15'5717.1
2019-Apr-16 21:09N 53°24' W 005°48'519.2
2019-Apr-16 20:54N 53°22' W 005°56'717.3
2019-Apr-16 20:30N 53°20' W 006°07'4 7.3
2019-Apr-16 20:00N 53°21' W 006°13'0 0.0
2019-Apr-16 19:31N 53°21' W 006°13'0 0.0
2019-Apr-16 19:01N 53°21' W 006°13'0 0.0
2019-Apr-16 18:31N 53°21' W 006°13'0 0.0
2019-Apr-16 18:00N 53°21' W 006°13'0 0.0
2019-Apr-16 17:30N 53°21' W 006°13'0 0.0
2019-Apr-16 17:00N 53°21' W 006°13'0 0.0
2019-Apr-16 16:30N 53°21' W 006°13'1 1.9
2019-Apr-16 16:00N 53°21' W 006°12'713.6
2019-Apr-16 15:30N 53°22' W 006°00'816.5
2019-Apr-16 15:00N 53°24' W 005°47'5917.6
2019-Apr-16 11:40N 53°34' W 004°10'317.9
2019-Apr-16 11:30N 53°34' W 004°05'1117.4
2019-Apr-16 10:50N 53°34' W 003°45'617.0
2019-Apr-16 10:30N 53°33' W 003°36'917.8
2019-Apr-16 10:00N 53°32' W 003°21'918.3
2019-Apr-16 09:30N 53°30' W 003°06'4 8.9
2019-Apr-16 09:00N 53°27' W 003°01'0 0.5
2019-Apr-16 08:30N 53°27' W 003°01'0 0.4
2019-Apr-16 07:59N 53°27' W 003°01'0 0.0
2019-Apr-16 07:29N 53°27' W 003°01'0 0.0
2019-Apr-16 06:59N 53°27' W 003°01'0 0.0
2019-Apr-16 06:29N 53°27' W 003°01'0 0.0
2019-Apr-16 05:59N 53°27' W 003°01'0 0.0
2019-Apr-16 05:29N 53°27' W 003°01'0 0.0
2019-Apr-16 04:59N 53°27' W 003°01'  

Dump ship's entire track history